createdAt,value
2022-12-15T00:01:59.154Z,-8.04
2022-12-15T00:04:44.587Z,-8.11
2022-12-15T00:07:29.822Z,-8.14
2022-12-15T00:10:15.244Z,-8.19
2022-12-15T00:13:00.546Z,-8.24
2022-12-15T00:15:45.699Z,-8.25
2022-12-15T00:18:30.947Z,-8.24
2022-12-15T00:21:17.371Z,-8.25
2022-12-15T00:24:02.483Z,-8.31
2022-12-15T00:26:48.064Z,-8.35
2022-12-15T00:29:33.045Z,-8.35
2022-12-15T00:32:18.694Z,-8.37
2022-12-15T00:35:03.822Z,-8.41
2022-12-15T00:37:49.021Z,-8.49
2022-12-15T00:40:15.810Z,-8.56
2022-12-15T00:42:42.462Z,-8.62
2022-12-15T00:45:09.652Z,-8.63
2022-12-15T00:47:36.283Z,-8.64
2022-12-15T00:50:23.505Z,-8.63
2022-12-15T00:53:08.854Z,-8.64
2022-12-15T00:55:54.148Z,-8.68
2022-12-15T00:58:39.813Z,-8.79
2022-12-15T01:01:26.857Z,-8.86
2022-12-15T01:04:12.575Z,-8.91
2022-12-15T01:06:57.918Z,-8.95
2022-12-15T01:09:43.255Z,-8.99
2022-12-15T01:12:28.517Z,-9.08
2022-12-15T01:15:13.808Z,-9.18
2022-12-15T01:17:59.026Z,-9.21
2022-12-15T01:20:25.659Z,-9.21
2022-12-15T01:22:54.920Z,-9.26
2022-12-15T01:25:24.064Z,-9.29
2022-12-15T01:27:51.121Z,-9.35
2022-12-15T01:30:23.851Z,-9.36
2022-12-15T01:32:50.854Z,-9.34
2022-12-15T01:35:17.953Z,-9.37
2022-12-15T01:37:45.253Z,-9.40
2022-12-15T01:40:34.145Z,-9.43
2022-12-15T01:43:00.931Z,-9.44
2022-12-15T01:45:27.490Z,-9.45
2022-12-15T01:47:58.219Z,-9.45
2022-12-15T01:50:26.487Z,-9.45
2022-12-15T01:52:55.033Z,-9.49
2022-12-15T01:55:24.862Z,-9.55
2022-12-15T01:57:57.554Z,-9.60
2022-12-15T02:00:24.346Z,-9.72
2022-12-15T02:02:51.719Z,-9.80
2022-12-15T02:05:20.055Z,-9.85
2022-12-15T02:07:46.838Z,-9.90
2022-12-15T02:10:16.665Z,-9.95
2022-12-15T02:12:55.515Z,-9.98
2022-12-15T02:15:41.579Z,-9.93
2022-12-15T02:18:28.495Z,-9.90
2022-12-15T02:21:09.861Z,-9.90
2022-12-15T02:24:13.091Z,-9.87
2022-12-15T02:27:15.139Z,-9.87
2022-12-15T02:30:12.619Z,-9.89
2022-12-15T02:33:23.775Z,-9.99
2022-12-15T02:35:57.960Z,-10.03
2022-12-15T02:38:36.266Z,-10.11
2022-12-15T02:41:05.404Z,-10.12
2022-12-15T02:43:38.985Z,-10.16
2022-12-15T02:46:55.585Z,-10.21
2022-12-15T02:49:37.934Z,-10.32
2022-12-15T02:52:19.666Z,-10.38
2022-12-15T02:55:01.549Z,-10.45
2022-12-15T02:57:36.612Z,-10.52
2022-12-15T03:00:09.768Z,-10.58
2022-12-15T03:02:40.946Z,-10.68
2022-12-15T03:05:08.728Z,-10.70
2022-12-15T03:07:35.432Z,-10.72
2022-12-15T03:10:04.916Z,-10.70
2022-12-15T03:12:31.739Z,-10.71
2022-12-15T03:14:58.355Z,-10.69
2022-12-15T03:17:25.092Z,-10.65
2022-12-15T03:19:51.696Z,-10.60
2022-12-15T03:22:18.315Z,-10.56
2022-12-15T03:24:44.932Z,-10.57
2022-12-15T03:27:12.070Z,-10.62
2022-12-15T03:29:38.726Z,-10.69
2022-12-15T03:32:05.828Z,-10.74
2022-12-15T03:34:32.796Z,-10.77
2022-12-15T03:36:59.443Z,-10.80
2022-12-15T03:39:26.115Z,-10.86
2022-12-15T03:41:52.711Z,-10.87
2022-12-15T03:44:19.329Z,-10.88
2022-12-15T03:46:45.951Z,-10.86
2022-12-15T03:49:12.586Z,-10.93
2022-12-15T03:51:39.289Z,-10.91
2022-12-15T03:54:07.402Z,-10.85
2022-12-15T03:56:34.060Z,-10.83
2022-12-15T03:59:00.677Z,-10.85
2022-12-15T04:01:31.819Z,-10.85
2022-12-15T04:04:01.186Z,-10.85
2022-12-15T04:06:31.174Z,-10.86
2022-12-15T04:08:58.866Z,-10.90
2022-12-15T04:11:25.458Z,-10.97
2022-12-15T04:13:52.082Z,-11.08
2022-12-15T04:16:20.302Z,-11.24
2022-12-15T04:19:07.819Z,-11.40
2022-12-15T04:21:34.478Z,-11.49
2022-12-15T04:24:19.626Z,-11.50
2022-12-15T04:27:04.883Z,-11.45
2022-12-15T04:29:50.165Z,-11.35
2022-12-15T04:32:35.619Z,-11.30
2022-12-15T04:35:21.213Z,-11.33
2022-12-15T04:38:06.779Z,-11.38
2022-12-15T04:40:51.973Z,-11.43
2022-12-15T04:43:37.163Z,-11.40
2022-12-15T04:46:22.038Z,-11.36
2022-12-15T04:49:07.638Z,-11.34
2022-12-15T04:51:53.060Z,-11.33
2022-12-15T04:54:38.264Z,-11.27
2022-12-15T04:57:23.490Z,-11.16
2022-12-15T05:00:08.876Z,-11.14
2022-12-15T05:02:54.032Z,-11.13
2022-12-15T05:05:39.160Z,-11.20
2022-12-15T05:08:24.261Z,-11.25
2022-12-15T05:11:09.571Z,-11.47
2022-12-15T05:13:54.741Z,-11.71
2022-12-15T05:16:40.937Z,-11.73
2022-12-15T05:19:26.097Z,-11.69
2022-12-15T05:22:11.361Z,-11.64
2022-12-15T05:24:56.850Z,-11.63
2022-12-15T05:27:42.372Z,-11.60
2022-12-15T05:30:28.150Z,-11.59
2022-12-15T05:32:57.019Z,-11.58
2022-12-15T05:35:23.712Z,-11.64
2022-12-15T05:37:50.707Z,-11.73
2022-12-15T05:40:17.331Z,-11.92
2022-12-15T05:42:43.938Z,-12.02
2022-12-15T05:45:16.649Z,-11.97
2022-12-15T05:47:43.237Z,-11.84
2022-12-15T05:50:10.055Z,-11.75
2022-12-15T05:52:36.668Z,-11.69
2022-12-15T05:55:09.810Z,-11.68
2022-12-15T05:57:36.492Z,-11.68
2022-12-15T06:00:05.486Z,-11.63
2022-12-15T06:02:32.274Z,-11.63
2022-12-15T06:05:02.304Z,-11.63
2022-12-15T06:07:28.977Z,-11.59
2022-12-15T06:09:55.831Z,-11.56
2022-12-15T06:12:22.453Z,-11.57
2022-12-15T06:14:49.794Z,-11.58
2022-12-15T06:17:16.643Z,-11.58
2022-12-15T06:19:43.256Z,-11.57
2022-12-15T06:22:10.555Z,-11.58
2022-12-15T06:24:37.223Z,-11.53
2022-12-15T06:27:04.229Z,-11.51
2022-12-15T06:29:30.885Z,-11.51
2022-12-15T06:31:57.547Z,-11.49
2022-12-15T06:34:24.350Z,-11.50
2022-12-15T06:36:51.086Z,-11.51
2022-12-15T06:39:17.696Z,-11.50
2022-12-15T06:41:44.513Z,-11.52
2022-12-15T06:44:19.122Z,-11.55
2022-12-15T06:46:48.249Z,-11.55
2022-12-15T06:49:15.010Z,-11.50
2022-12-15T06:51:42.918Z,-11.47
2022-12-15T06:54:11.294Z,-11.41
2022-12-15T06:56:39.396Z,-11.35
2022-12-15T06:59:07.496Z,-11.28
2022-12-15T07:01:35.043Z,-11.20
2022-12-15T07:04:05.116Z,-11.17
2022-12-15T07:06:36.710Z,-11.18
2022-12-15T07:09:05.238Z,-11.21
2022-12-15T07:11:31.896Z,-11.24
2022-12-15T07:13:58.547Z,-11.28
2022-12-15T07:16:25.472Z,-11.25
2022-12-15T07:18:52.389Z,-11.22
2022-12-15T07:21:19.080Z,-11.21
2022-12-15T07:23:54.743Z,-11.18
2022-12-15T07:26:23.010Z,-11.21
2022-12-15T07:28:49.717Z,-11.23
2022-12-15T07:31:16.484Z,-11.24
2022-12-15T07:33:43.542Z,-11.26
2022-12-15T07:36:11.105Z,-11.30
2022-12-15T07:38:38.350Z,-11.33
2022-12-15T07:41:07.431Z,-11.31
2022-12-15T07:43:35.343Z,-11.25
2022-12-15T07:46:03.114Z,-11.22
2022-12-15T07:48:29.929Z,-11.25
2022-12-15T07:51:08.493Z,-11.27
2022-12-15T07:53:38.354Z,-11.26
2022-12-15T07:56:08.614Z,-11.24
2022-12-15T07:58:36.235Z,-11.18
2022-12-15T08:01:06.193Z,-11.12
2022-12-15T08:03:33.725Z,-11.08
2022-12-15T08:06:10.191Z,-11.03
2022-12-15T08:08:37.471Z,-10.96
2022-12-15T08:11:12.069Z,-10.92
2022-12-15T08:16:26.729Z,-11.04
2022-12-15T08:18:53.893Z,-11.07
2022-12-15T08:21:20.685Z,-11.02
2022-12-15T08:23:47.896Z,-10.93
2022-12-15T08:26:17.710Z,-10.90
2022-12-15T08:28:46.154Z,-10.93
2022-12-15T08:31:18.626Z,-10.90
2022-12-15T08:33:46.124Z,-10.88
2022-12-15T08:36:14.896Z,-10.86
2022-12-15T08:38:43.489Z,-10.83
2022-12-15T08:41:23.181Z,-10.85
2022-12-15T08:43:51.490Z,-10.81
2022-12-15T08:46:21.052Z,-10.75
2022-12-15T08:48:48.707Z,-10.73
2022-12-15T08:51:15.831Z,-10.72
2022-12-15T08:53:43.095Z,-10.70
2022-12-15T08:56:12.457Z,-10.68
2022-12-15T08:58:40.083Z,-10.62
2022-12-15T09:01:09.799Z,-10.59
2022-12-15T09:03:36.913Z,-10.56
2022-12-15T09:06:05.424Z,-10.51
2022-12-15T09:08:32.915Z,-10.46
2022-12-15T09:11:00.379Z,-10.39
2022-12-15T09:13:27.243Z,-10.32
2022-12-15T09:16:11.498Z,-10.26
2022-12-15T09:18:38.540Z,-10.20
2022-12-15T09:21:07.391Z,-10.17
2022-12-15T09:23:36.046Z,-10.20
2022-12-15T09:26:14.543Z,-10.28
2022-12-15T09:28:43.056Z,-10.30
2022-12-15T09:31:16.223Z,-10.26
2022-12-15T09:33:44.132Z,-10.19
2022-12-15T09:36:13.328Z,-10.12
2022-12-15T09:38:41.952Z,-10.09
2022-12-15T09:41:08.715Z,-10.05
2022-12-15T09:43:46.290Z,-10.00
2022-12-15T09:46:40.556Z,-9.91
2022-12-15T09:49:25.777Z,-9.84
2022-12-15T09:52:09.006Z,-9.71
2022-12-15T09:54:38.096Z,-9.61
2022-12-15T09:57:15.463Z,-9.51
2022-12-15T09:59:49.040Z,-9.43
2022-12-15T10:02:43.070Z,-9.31
2022-12-15T10:05:17.496Z,-9.20
2022-12-15T10:07:46.560Z,-9.09
2022-12-15T10:10:29.905Z,-9.00
2022-12-15T10:13:09.359Z,-8.90
2022-12-15T10:15:45.597Z,-8.81
2022-12-15T10:18:23.638Z,-8.72
2022-12-15T10:20:54.119Z,-8.66
2022-12-15T10:23:21.339Z,-8.60
2022-12-15T10:25:51.271Z,-8.54
2022-12-15T10:28:33.253Z,-8.49
2022-12-15T10:31:32.332Z,-8.43
2022-12-15T10:34:25.611Z,-8.40
2022-12-15T10:36:53.484Z,-8.32
2022-12-15T10:39:21.566Z,-8.27
2022-12-15T10:42:13.035Z,-8.20
2022-12-15T10:44:42.322Z,-8.16
2022-12-15T10:47:23.893Z,-8.12
2022-12-15T10:49:50.887Z,-8.07
2022-12-15T10:52:27.435Z,-8.05
2022-12-15T10:54:55.224Z,-8.01
2022-12-15T10:57:27.978Z,-7.97
2022-12-15T10:59:58.222Z,-7.95
2022-12-15T11:02:27.573Z,-7.92
2022-12-15T11:05:17.180Z,-7.90
2022-12-15T11:07:53.452Z,-7.89
2022-12-15T11:10:24.918Z,-7.86
2022-12-15T11:12:59.034Z,-7.85
2022-12-15T11:15:37.661Z,-7.83
2022-12-15T11:18:18.628Z,-7.83
2022-12-15T11:21:09.929Z,-7.87
2022-12-15T11:23:46.793Z,-7.91
2022-12-15T11:26:21.370Z,-7.91
2022-12-15T11:28:56.511Z,-7.93
2022-12-15T11:31:48.763Z,-7.95
2022-12-15T11:34:19.779Z,-7.98
2022-12-15T11:37:07.649Z,-7.98
2022-12-15T11:39:41.542Z,-7.96
2022-12-15T11:42:21.948Z,-7.94
2022-12-15T11:44:56.115Z,-7.96
2022-12-15T11:47:28.669Z,-7.94
2022-12-15T11:50:14.399Z,-7.96
2022-12-15T11:52:55.023Z,-8.00
2022-12-15T11:55:49.969Z,-8.05
2022-12-15T11:58:45.763Z,-8.10
2022-12-15T12:02:02.404Z,-8.14
2022-12-15T12:04:51.034Z,-8.14
2022-12-15T12:07:44.607Z,-8.15
2022-12-15T12:10:48.964Z,-8.18
2022-12-15T12:13:43.100Z,-8.19
2022-12-15T12:16:40.254Z,-8.23
2022-12-15T12:19:38.407Z,-8.29
2022-12-15T12:22:13.843Z,-8.29
2022-12-15T12:24:48.978Z,-8.28
2022-12-15T12:27:22.815Z,-8.27
2022-12-15T12:29:55.638Z,-8.32
2022-12-15T12:32:30.859Z,-8.33
2022-12-15T12:35:31.565Z,-8.32
2022-12-15T12:38:05.195Z,-8.30
2022-12-15T12:40:41.134Z,-8.29
2022-12-15T12:43:13.630Z,-8.33
2022-12-15T12:45:52.220Z,-8.34
2022-12-15T12:48:48.560Z,-8.37
2022-12-15T12:51:24.702Z,-8.40
2022-12-15T12:53:51.746Z,-8.41
2022-12-15T12:56:36.614Z,-8.40
2022-12-15T12:59:24.519Z,-8.38
2022-12-15T13:01:51.361Z,-8.37
2022-12-15T13:04:30.443Z,-8.36
2022-12-15T13:07:08.886Z,-8.36
2022-12-15T13:10:16.594Z,-8.36
2022-12-15T13:12:54.493Z,-8.36
2022-12-15T13:15:27.215Z,-8.34
2022-12-15T13:18:12.269Z,-8.34
2022-12-15T13:20:40.098Z,-8.35
2022-12-15T13:23:21.933Z,-8.35
2022-12-15T13:25:57.259Z,-8.36
2022-12-15T13:28:36.288Z,-8.37
2022-12-15T13:31:21.570Z,-8.36
2022-12-15T13:33:51.174Z,-8.36
2022-12-15T13:36:36.710Z,-8.34
2022-12-15T13:39:12.586Z,-8.34
2022-12-15T13:42:07.600Z,-8.36
2022-12-15T13:44:39.535Z,-8.37
2022-12-15T13:47:12.297Z,-8.37
2022-12-15T13:50:01.363Z,-8.36
2022-12-15T13:53:18.467Z,-8.39
2022-12-15T13:55:55.117Z,-8.42
2022-12-15T13:58:24.284Z,-8.43
2022-12-15T14:00:56.403Z,-8.41
2022-12-15T14:03:23.498Z,-8.44
2022-12-15T14:06:00.213Z,-8.42
2022-12-15T14:08:30.448Z,-8.39
2022-12-15T14:11:07.082Z,-8.40
2022-12-15T14:13:46.863Z,-8.37
2022-12-15T14:16:21.891Z,-8.36
2022-12-15T14:19:08.781Z,-8.40
2022-12-15T14:21:35.483Z,-8.46
2022-12-15T14:26:48.973Z,-8.50
2022-12-15T14:29:17.512Z,-8.50
2022-12-15T14:31:49.521Z,-8.45
2022-12-15T14:34:25.864Z,-8.41
2022-12-15T14:36:55.719Z,-8.37
2022-12-15T14:39:32.238Z,-8.35
2022-12-15T14:42:01.393Z,-8.33
2022-12-15T14:44:38.560Z,-8.29
2022-12-15T14:47:24.874Z,-8.26
2022-12-15T14:49:51.765Z,-8.24
2022-12-15T14:52:31.447Z,-8.26
2022-12-15T14:55:04.776Z,-8.32
2022-12-15T14:57:44.552Z,-8.37
2022-12-15T15:00:31.712Z,-8.43
2022-12-15T15:03:24.329Z,-8.44
2022-12-15T15:06:15.810Z,-8.44
2022-12-15T15:08:50.362Z,-8.47
2022-12-15T15:11:35.184Z,-8.51
2022-12-15T15:14:19.959Z,-8.55
2022-12-15T15:17:00.730Z,-8.61
2022-12-15T15:19:27.910Z,-8.62
2022-12-15T15:21:54.622Z,-8.65
2022-12-15T15:24:25.112Z,-8.66
2022-12-15T15:26:55.446Z,-8.66
2022-12-15T15:29:41.347Z,-8.64
2022-12-15T15:32:20.241Z,-8.66
2022-12-15T15:34:47.447Z,-8.66
2022-12-15T15:37:25.239Z,-8.64
2022-12-15T15:39:55.024Z,-8.65
2022-12-15T15:42:25.450Z,-8.64
2022-12-15T15:44:55.824Z,-8.64
2022-12-15T15:47:26.109Z,-8.63
2022-12-15T15:49:54.940Z,-8.60
2022-12-15T15:52:22.444Z,-8.59
2022-12-15T15:54:49.443Z,-8.58
2022-12-15T15:57:17.998Z,-8.57
2022-12-15T15:59:46.400Z,-8.57
2022-12-15T16:02:14.198Z,-8.54
2022-12-15T16:04:42.465Z,-8.55
2022-12-15T16:07:25.666Z,-8.54
2022-12-15T16:09:53.610Z,-8.54
2022-12-15T16:12:27.588Z,-8.55
2022-12-15T16:14:55.256Z,-8.53
2022-12-15T16:17:22.967Z,-8.51
2022-12-15T16:19:49.596Z,-8.51
2022-12-15T16:22:21.381Z,-8.53
2022-12-15T16:24:48.540Z,-8.54
2022-12-15T16:27:15.892Z,-8.55
2022-12-15T16:29:42.859Z,-8.57
2022-12-15T16:32:11.769Z,-8.55
2022-12-15T16:34:38.506Z,-8.53
2022-12-15T16:37:05.572Z,-8.51
2022-12-15T16:39:34.899Z,-8.50
2022-12-15T16:42:02.181Z,-8.49
2022-12-15T16:44:29.558Z,-8.48
2022-12-15T16:46:57.627Z,-8.48
2022-12-15T16:49:25.198Z,-8.48
2022-12-15T16:51:53.820Z,-8.47
2022-12-15T16:54:24.372Z,-8.48
2022-12-15T16:56:53.117Z,-8.49
2022-12-15T16:59:37.874Z,-8.51
2022-12-15T17:02:34.449Z,-8.50
2022-12-15T17:05:01.849Z,-8.48
2022-12-15T17:07:29.449Z,-8.50
2022-12-15T17:09:56.781Z,-8.55
2022-12-15T17:12:23.562Z,-8.60
2022-12-15T17:14:50.202Z,-8.59
2022-12-15T17:17:19.323Z,-8.60
2022-12-15T17:20:11.716Z,-8.62
2022-12-15T17:22:33.601Z,-8.67
2022-12-15T17:25:00.520Z,-8.70
2022-12-15T17:27:29.777Z,-8.76
2022-12-15T17:29:59.684Z,-8.77
2022-12-15T17:32:27.016Z,-8.81
2022-12-15T17:34:54.362Z,-8.93
2022-12-15T17:37:24.425Z,-8.95
2022-12-15T17:39:55.184Z,-8.99
2022-12-15T17:42:28.410Z,-8.92
2022-12-15T17:44:58.468Z,-8.94
2022-12-15T17:47:31.790Z,-8.97
2022-12-15T17:50:01.117Z,-8.90
2022-12-15T17:52:34.391Z,-8.88
2022-12-15T17:55:03.134Z,-8.91
2022-12-15T17:57:36.467Z,-8.94
2022-12-15T18:00:14.545Z,-8.97
2022-12-15T18:02:41.408Z,-8.99
2022-12-15T18:05:11.637Z,-9.01
2022-12-15T18:07:39.191Z,-9.06
2022-12-15T18:10:23.163Z,-9.09
2022-12-15T18:12:49.904Z,-9.12
2022-12-15T18:15:22.630Z,-9.14
2022-12-15T18:17:49.555Z,-9.11
2022-12-15T18:20:16.842Z,-9.11
2022-12-15T18:22:43.605Z,-9.10
2022-12-15T18:25:16.732Z,-9.12
2022-12-15T18:27:43.630Z,-9.12
2022-12-15T18:30:22.127Z,-9.10
2022-12-15T18:32:51.029Z,-9.10
2022-12-15T18:35:34.444Z,-9.11
2022-12-15T18:38:01.075Z,-9.15
2022-12-15T18:40:29.927Z,-9.19
2022-12-15T18:42:56.779Z,-9.22
2022-12-15T18:45:28.039Z,-9.32
2022-12-15T18:47:54.914Z,-9.35
2022-12-15T18:50:24.127Z,-9.34
2022-12-15T18:53:15.688Z,-9.36
2022-12-15T18:55:42.377Z,-9.40
2022-12-15T18:58:21.212Z,-9.40
2022-12-15T19:00:48.791Z,-9.40
2022-12-15T19:03:15.849Z,-9.40
2022-12-15T19:05:43.140Z,-9.47
2022-12-15T19:08:13.582Z,-9.47
2022-12-15T19:10:52.378Z,-9.48
2022-12-15T19:13:22.611Z,-9.49
2022-12-15T19:15:49.313Z,-9.52
2022-12-15T19:18:36.612Z,-9.54
2022-12-15T19:21:30.514Z,-9.61
2022-12-15T19:23:57.194Z,-9.66
2022-12-15T19:26:23.839Z,-9.65
2022-12-15T19:28:50.445Z,-9.65
2022-12-15T19:31:17.162Z,-9.65
2022-12-15T19:33:44.129Z,-9.65
2022-12-15T19:36:17.037Z,-9.64
2022-12-15T19:38:45.317Z,-9.65
2022-12-15T19:41:17.267Z,-9.68
2022-12-15T19:43:44.645Z,-9.68
2022-12-15T19:46:17.839Z,-9.69
2022-12-15T19:48:44.630Z,-9.68
2022-12-15T19:51:23.171Z,-9.73
2022-12-15T19:53:52.123Z,-9.76
2022-12-15T19:56:27.766Z,-9.76
2022-12-15T19:58:54.364Z,-9.78
2022-12-15T20:01:21.424Z,-9.80
2022-12-15T20:03:52.789Z,-9.81
2022-12-15T20:06:27.521Z,-9.84
2022-12-15T20:08:56.256Z,-9.87
2022-12-15T20:11:24.624Z,-9.90
2022-12-15T20:13:52.471Z,-9.93
2022-12-15T20:16:20.455Z,-9.98
2022-12-15T20:18:49.235Z,-10.00
2022-12-15T20:21:22.264Z,-10.03
2022-12-15T20:23:58.676Z,-10.03
2022-12-15T20:26:25.555Z,-10.05
2022-12-15T20:28:53.411Z,-10.04
2022-12-15T20:31:22.886Z,-10.02
2022-12-15T20:33:50.040Z,-9.98
2022-12-15T20:36:25.909Z,-9.97
2022-12-15T20:38:53.307Z,-9.96
2022-12-15T20:41:22.713Z,-9.97
2022-12-15T20:43:50.129Z,-9.99
2022-12-15T20:46:21.765Z,-10.02
2022-12-15T20:48:50.121Z,-9.99
2022-12-15T20:51:28.662Z,-9.99
2022-12-15T20:53:57.381Z,-9.94
2022-12-15T20:56:24.755Z,-9.94
2022-12-15T20:58:53.114Z,-9.92
2022-12-15T21:01:30.486Z,-9.89
2022-12-15T21:03:59.555Z,-9.86
2022-12-15T21:06:27.923Z,-9.90
2022-12-15T21:08:55.628Z,-9.91
2022-12-15T21:11:32.765Z,-9.85
2022-12-15T21:14:04.238Z,-9.82
2022-12-15T21:16:32.045Z,-9.74
2022-12-15T21:21:52.134Z,-9.68
2022-12-15T21:24:25.348Z,-9.67
2022-12-15T21:26:52.564Z,-9.67
2022-12-15T21:29:22.779Z,-9.66
2022-12-15T21:31:49.426Z,-9.67
2022-12-15T21:34:16.397Z,-9.68
2022-12-15T21:36:45.710Z,-9.72
2022-12-15T21:39:21.573Z,-9.75
2022-12-15T21:41:48.436Z,-9.75
2022-12-15T21:44:16.036Z,-9.76
2022-12-15T21:46:42.774Z,-9.77
2022-12-15T21:49:18.554Z,-9.77
2022-12-15T21:51:51.920Z,-9.79
2022-12-15T21:54:20.016Z,-9.79
2022-12-15T21:56:48.076Z,-9.81
2022-12-15T21:59:17.281Z,-9.84
2022-12-15T22:01:44.232Z,-9.92
2022-12-15T22:04:23.828Z,-9.93
2022-12-15T22:06:51.005Z,-10.03
2022-12-15T22:09:18.924Z,-10.13
2022-12-15T22:11:50.079Z,-10.24
2022-12-15T22:14:24.306Z,-10.37
2022-12-15T22:16:51.343Z,-10.52
2022-12-15T22:19:18.192Z,-10.63
2022-12-15T22:21:44.867Z,-10.70
2022-12-15T22:24:12.196Z,-10.72
2022-12-15T22:26:40.482Z,-10.73
2022-12-15T22:29:17.171Z,-10.69
2022-12-15T22:31:43.864Z,-10.64
2022-12-15T22:34:15.722Z,-10.56
2022-12-15T22:36:43.027Z,-10.52
2022-12-15T22:39:11.184Z,-10.45
2022-12-15T22:41:40.535Z,-10.41
2022-12-15T22:44:13.833Z,-10.36
2022-12-15T22:46:40.600Z,-10.32
2022-12-15T22:49:14.706Z,-10.23
2022-12-15T22:51:41.506Z,-10.16
2022-12-15T22:54:19.052Z,-10.10
2022-12-15T22:56:53.755Z,-10.05
2022-12-15T22:59:32.721Z,-9.94
2022-12-15T23:02:02.234Z,-9.85
2022-12-15T23:04:35.113Z,-9.75
2022-12-15T23:07:05.645Z,-9.66
2022-12-15T23:09:32.401Z,-9.57
2022-12-15T23:12:02.030Z,-9.49
2022-12-15T23:14:50.240Z,-9.45
2022-12-15T23:17:19.850Z,-9.42
2022-12-15T23:19:49.103Z,-9.37
2022-12-15T23:22:15.823Z,-9.35
2022-12-15T23:24:42.523Z,-9.36
2022-12-15T23:27:12.538Z,-9.34
2022-12-15T23:29:39.245Z,-9.30
2022-12-15T23:32:06.203Z,-9.27
2022-12-15T23:34:33.010Z,-9.25
2022-12-15T23:36:59.815Z,-9.20
2022-12-15T23:39:26.423Z,-9.18
2022-12-15T23:41:55.409Z,-9.17
2022-12-15T23:44:22.062Z,-9.16
2022-12-15T23:46:51.791Z,-9.14
2022-12-15T23:49:18.463Z,-9.12
2022-12-15T23:51:45.078Z,-9.14
2022-12-15T23:54:11.759Z,-9.16
2022-12-15T23:56:42.340Z,-9.18
2022-12-15T23:59:08.968Z,-9.19
